Strona główna
METAR-TAF:

METAR-TAF

Lotnisko :

Port lotniczy Damaszek

Damaszek, Syria

Szerokość geograficzna: 33-25N, Długość geograficzna: 036-31E, wysokość: 608 m

Aktualna obserwacja pogody

Raport powstał 39 minut temu, godzina 07:00 UTC
Wiatr 4 kt od wschód
Temperatura 6°C
Wilgotność 93%
Ciśnienie 1021 hPa
Widzialność: 0100 m
mgła

METAR: OSDI 100700Z 10004KT 0100 FG 06/05 Q1021

czas: 09:39 (07:39 UTC)

Prognoza

Prognoza ważna od 10 godzina 06 UTC do 11 godzina 12 UTC
Wiatr 3 kt z kierunków zmiennych
Widzialność: 0500 m
mgła
Stopniowe zmiany
od 10 godzina 07 UTC do 10 godzina 09 UTC
Wiatr 8 kt od południowo-południowy zachód
Widzialność: 3000 m
zamglenie
Stopniowe zmiany
od 10 godzina 10 UTC do 10 godzina 12 UTC
Wiatr 12 kt od zachód
Widzialność: 6000 m
Rozproszone chmury na wysokości 3000 ft
Przerywane chmury na wysokości 10000 ft

TAF: OSDI 1006/1112 VRB03KT 0500 FG BECMG 1007/1009 21008KT 3000 BR BECMG 1010/1012 26012KT 6000 SCT030 BKN100

Obserwacja i prognoza pogody dla ponad 4000 lotnisk (raport METAR i TAF).

Dostępne stacje oznaczono żółtymi i czerwonymi punktami na mapie.

Najedź kursorem aby zobaczyć nazwę stacji.

Kliknij aby zobaczyć obserwacje i prognozy pogody.

Aby zmienić mapę: kliknij na zielony przycisk z czarnym krzyżykiem, aby powiększyć; na zielony przycisk z myślnikiem, aby pomniejszyć; na zielone strzałki, aby przejść do map sąsiednich.


METAR-TAF: